createdAt,value
2017-04-08T00:00:26.641Z,75.3
2017-04-08T00:01:07.297Z,75.11
2017-04-08T00:01:47.944Z,75.01
2017-04-08T00:02:28.599Z,75.4
2017-04-08T00:03:11.293Z,75.2
2017-04-08T00:03:52.980Z,75.49
2017-04-08T00:04:33.651Z,75.11
2017-04-08T00:05:14.298Z,75.01
2017-04-08T00:05:55.986Z,75.55
2017-04-08T00:06:36.613Z,75.87
2017-04-08T00:07:18.334Z,75.68
2017-04-08T00:07:59.073Z,75.78
2017-04-08T00:08:39.699Z,75.78
2017-04-08T00:09:21.400Z,75.78
2017-04-08T00:10:03.065Z,75.68
2017-04-08T00:10:43.713Z,75.49
2017-04-08T00:11:24.413Z,75.45
2017-04-08T00:12:05.141Z,75.64
2017-04-08T00:12:45.792Z,75.36
2017-04-08T00:13:27.473Z,75.74
2017-04-08T00:14:08.104Z,75.84
2017-04-08T00:14:48.759Z,75.55
2017-04-08T00:15:29.474Z,75.96
2017-04-08T00:16:10.179Z,75.87
2017-04-08T00:16:50.915Z,75.55
2017-04-08T00:17:31.578Z,75.59
2017-04-08T00:18:12.262Z,75.74
2017-04-08T00:18:53.932Z,75.84
2017-04-08T00:19:36.609Z,75.55
2017-04-08T00:20:17.357Z,75.84
2017-04-08T00:20:58.015Z,75.64
2017-04-08T00:21:38.578Z,76.03
2017-04-08T00:22:19.224Z,76.21
2017-04-08T00:23:00.936Z,76.12
2017-04-08T00:23:41.635Z,75.84
2017-04-08T00:24:22.734Z,76.03
2017-04-08T00:25:03.396Z,76.03
2017-04-08T00:25:45.075Z,76.03
2017-04-08T00:26:25.777Z,76.5
2017-04-08T00:27:06.359Z,76.5
2017-04-08T00:27:48.032Z,76.5
2017-04-08T00:28:28.704Z,76.4
2017-04-08T00:29:09.412Z,76.21
2017-04-08T00:29:50.005Z,76.31
2017-04-08T00:30:30.679Z,76.21
2017-04-08T00:31:11.391Z,76.31
2017-04-08T00:31:52.054Z,76.21
2017-04-08T00:32:32.707Z,76.98
2017-04-08T00:33:13.351Z,76.88
2017-04-08T00:33:55.047Z,76.88
2017-04-08T00:34:36.717Z,76.69
2017-04-08T00:35:17.444Z,76.88
2017-04-08T00:35:58.016Z,76.79
2017-04-08T00:36:39.697Z,76.88
2017-04-08T00:37:20.315Z,76.79
2017-04-08T00:38:00.885Z,76.59
2017-04-08T00:38:41.541Z,76.59
2017-04-08T00:39:22.172Z,76.79
2017-04-08T00:40:02.741Z,76.79
2017-04-08T00:40:44.526Z,76.5
2017-04-08T00:41:26.256Z,76.4
2017-04-08T00:42:06.953Z,77.07
2017-04-08T00:42:47.528Z,76.88
2017-04-08T00:43:28.263Z,76.59
2017-04-08T00:44:08.991Z,77.07
2017-04-08T00:44:49.559Z,76.59
2017-04-08T00:45:32.277Z,76.59
2017-04-08T00:46:13.923Z,76.59
2017-04-08T00:46:54.506Z,76.98
2017-04-08T00:47:35.170Z,76.5
2017-04-08T00:48:15.882Z,76.59
2017-04-08T00:48:56.471Z,76.59
2017-04-08T00:49:38.164Z,76.69
2017-04-08T00:50:19.900Z,76.5
2017-04-08T00:51:00.480Z,76.59
2017-04-08T00:51:42.153Z,76.31
2017-04-08T00:52:23.805Z,76.4
2017-04-08T00:53:04.381Z,76.69
2017-04-08T00:53:45.074Z,76.4
2017-04-08T00:54:25.759Z,76.5
2017-04-08T00:55:06.339Z,76.69
2017-04-08T00:55:46.976Z,76.69
2017-04-08T00:56:27.720Z,76.69
2017-04-08T00:57:08.278Z,76.69
2017-04-08T00:57:48.947Z,76.69
2017-04-08T00:58:30.594Z,76.69
2017-04-08T00:59:11.166Z,76.69
2017-04-08T00:59:53.867Z,76.69
2017-04-08T01:00:34.530Z,76.69
2017-04-08T01:01:15.183Z,76.98
2017-04-08T01:01:55.831Z,76.59
2017-04-08T01:02:36.493Z,76.69
2017-04-08T01:03:17.130Z,76.69
2017-04-08T01:03:57.828Z,76.69
2017-04-08T01:04:43.154Z,76.69
2017-04-08T01:05:23.806Z,76.69
2017-04-08T01:06:04.452Z,76.98
2017-04-08T01:06:45.113Z,77.07
2017-04-08T01:07:26.789Z,76.88
2017-04-08T01:08:13.088Z,76.88
2017-04-08T01:08:53.725Z,76.88
2017-04-08T01:09:34.394Z,76.98
2017-04-08T01:10:15.108Z,77.17
2017-04-08T01:10:55.674Z,77.07
2017-04-08T01:11:38.385Z,76.79
2017-04-08T01:12:19.010Z,76.79
2017-04-08T01:12:59.586Z,77.17
2017-04-08T01:13:42.279Z,76.75
2017-04-08T01:14:23.954Z,76.88
2017-04-08T01:15:04.527Z,76.94
2017-04-08T01:15:45.157Z,77.13
2017-04-08T01:16:26.853Z,76.84
2017-04-08T01:17:07.522Z,77.13
2017-04-08T01:17:48.280Z,76.98
2017-04-08T01:18:29.003Z,77.03
2017-04-08T01:19:11.797Z,77.42
2017-04-08T01:19:52.471Z,77.36
2017-04-08T01:20:33.148Z,77.55
2017-04-08T01:21:13.849Z,77.32
2017-04-08T01:21:54.416Z,77.51
2017-04-08T01:22:37.126Z,77.32
2017-04-08T01:23:17.829Z,77.17
2017-04-08T01:23:58.520Z,77.26
2017-04-08T01:24:39.097Z,77.36
2017-04-08T01:25:19.846Z,77.42
2017-04-08T01:26:00.488Z,77.13
2017-04-08T01:26:41.142Z,77.17
2017-04-08T01:27:23.883Z,77.26
2017-04-08T01:28:04.601Z,77.22
2017-04-08T01:28:46.289Z,77.32
2017-04-08T01:29:26.948Z,77.51
2017-04-08T01:30:07.632Z,77.22
2017-04-08T01:30:48.332Z,77.61
2017-04-08T01:31:28.926Z,77.51
2017-04-08T01:32:09.646Z,77.7
2017-04-08T01:32:50.344Z,77.7
2017-04-08T01:33:32.063Z,77.8
2017-04-08T01:34:12.624Z,77.51
2017-04-08T01:34:53.328Z,77.51
2017-04-08T01:35:40.941Z,77.61
2017-04-08T01:36:21.505Z,77.51
2017-04-08T01:37:02.227Z,77.61
2017-04-08T01:37:42.901Z,77.51
2017-04-08T01:38:23.484Z,77.8
2017-04-08T01:39:04.158Z,77.89
2017-04-08T01:39:45.830Z,77.98
2017-04-08T01:40:26.401Z,77.8
2017-04-08T01:41:07.054Z,77.7
2017-04-08T01:41:47.808Z,77.61
2017-04-08T01:42:28.374Z,77.7
2017-04-08T01:43:10.047Z,77.7
2017-04-08T01:43:51.808Z,78.08
2017-04-08T01:44:32.391Z,78.08
2017-04-08T01:45:13.027Z,78.08
2017-04-08T01:45:53.745Z,78.08
2017-04-08T01:46:34.307Z,77.7
2017-04-08T01:47:29.667Z,78.17
2017-04-08T01:48:10.366Z,78.17
2017-04-08T01:48:50.947Z,78.27
2017-04-08T01:49:32.605Z,78.08
2017-04-08T01:50:15.274Z,78.08
2017-04-08T01:50:55.923Z,78.17
2017-04-08T01:51:36.683Z,78.56
2017-04-08T01:52:17.330Z,78.65
2017-04-08T01:52:59.126Z,78.46
2017-04-08T01:53:40.805Z,78.56
2017-04-08T01:54:21.551Z,78.27
2017-04-08T01:55:02.131Z,78.27
2017-04-08T01:55:42.882Z,78.37
2017-04-08T01:56:23.601Z,78.46
2017-04-08T01:57:04.262Z,78.17
2017-04-08T01:57:44.834Z,78.37
2017-04-08T01:58:27.549Z,78.37
2017-04-08T01:59:08.225Z,78.37
2017-04-08T01:59:48.937Z,78.37
2017-04-08T02:00:29.498Z,78.37
2017-04-08T02:01:10.140Z,78.56
2017-04-08T02:01:51.867Z,78.46
2017-04-08T02:02:34.602Z,78.75
2017-04-08T02:03:15.203Z,78.37
2017-04-08T02:03:55.862Z,78.85
2017-04-08T02:04:36.521Z,78.94
2017-04-08T02:05:17.229Z,78.75
2017-04-08T02:05:57.785Z,78.75
2017-04-08T02:06:39.491Z,78.94
2017-04-08T02:07:21.189Z,78.94
2017-04-08T02:08:01.883Z,78.65
2017-04-08T02:08:42.447Z,78.94
2017-04-08T02:09:24.140Z,78.65
2017-04-08T02:10:04.807Z,78.75
2017-04-08T02:10:45.469Z,78.75
2017-04-08T02:11:26.123Z,78.46
2017-04-08T02:12:06.777Z,78.56
2017-04-08T02:12:47.438Z,78.37
2017-04-08T02:13:28.088Z,78.46
2017-04-08T02:14:09.764Z,78.56
2017-04-08T02:14:51.540Z,79.03
2017-04-08T02:15:32.277Z,79.32
2017-04-08T02:16:17.620Z,79.41
2017-04-08T02:16:59.299Z,79.22
2017-04-08T02:17:40.043Z,79.13
2017-04-08T02:18:20.735Z,79.22
2017-04-08T02:19:01.461Z,78.94
2017-04-08T02:19:42.114Z,79.03
2017-04-08T02:20:22.806Z,79.03
2017-04-08T02:21:04.536Z,79.13
2017-04-08T02:21:45.121Z,78.94
2017-04-08T02:22:26.921Z,79.13
2017-04-08T02:23:08.606Z,79.32
2017-04-08T02:23:51.341Z,79.41
2017-04-08T02:24:31.927Z,79.32
2017-04-08T02:25:13.638Z,79.41
2017-04-08T02:25:54.376Z,79.41
2017-04-08T02:26:35.077Z,79.22
2017-04-08T02:27:15.643Z,79.22
2017-04-08T02:27:56.303Z,79.51
2017-04-08T02:28:39.036Z,79.32
2017-04-08T02:29:19.735Z,79.32
2017-04-08T02:30:00.303Z,79.41
2017-04-08T02:30:40.956Z,79.41
2017-04-08T02:31:21.749Z,79.6
2017-04-08T02:32:02.463Z,79.51
2017-04-08T02:32:43.119Z,79.51
2017-04-08T02:33:29.619Z,79.6
2017-04-08T02:34:11.302Z,79.41
2017-04-08T02:34:52.987Z,79.41
2017-04-08T02:35:33.708Z,79.32
2017-04-08T02:36:14.287Z,79.32
2017-04-08T02:36:55.037Z,79.32
2017-04-08T02:37:40.377Z,79.8
2017-04-08T02:38:20.960Z,79.89
2017-04-08T02:39:01.722Z,79.89
2017-04-08T02:39:42.442Z,79.89
2017-04-08T02:40:23.007Z,79.6
2017-04-08T02:41:03.751Z,79.6
2017-04-08T02:41:49.136Z,79.51
2017-04-08T02:42:29.877Z,79.7
2017-04-08T02:43:10.530Z,79.51
2017-04-08T02:43:51.307Z,79.6
2017-04-08T02:44:33.992Z,79.7
2017-04-08T02:45:14.736Z,79.8
2017-04-08T02:45:55.386Z,79.66
2017-04-08T02:46:37.088Z,79.8
2017-04-08T02:47:18.735Z,79.8
2017-04-08T02:47:59.404Z,79.89
2017-04-08T02:48:40.159Z,79.89
2017-04-08T02:49:20.811Z,79.7
2017-04-08T02:50:01.569Z,79.89
2017-04-08T02:50:42.324Z,80.46
2017-04-08T02:51:24.003Z,80.55
2017-04-08T02:52:04.753Z,80.46
2017-04-08T02:52:45.503Z,80.27
2017-04-08T02:53:27.226Z,80.55
2017-04-08T02:54:08.962Z,80.13
2017-04-08T02:54:50.629Z,80.46
2017-04-08T02:55:31.370Z,80.08
2017-04-08T02:56:11.960Z,80.08
2017-04-08T02:56:53.869Z,80.23
2017-04-08T02:57:35.489Z,80.13
2017-04-08T02:58:16.055Z,80.04
2017-04-08T02:58:57.735Z,80.13
2017-04-08T02:59:38.412Z,80.42
2017-04-08T03:00:18.989Z,80.52
2017-04-08T03:00:59.694Z,80.42
2017-04-08T03:01:40.454Z,80.23
2017-04-08T03:02:22.095Z,80.71
2017-04-08T03:03:02.775Z,80.52
2017-04-08T03:03:43.538Z,80.52
2017-04-08T03:04:24.312Z,80.52
2017-04-08T03:05:06.999Z,80.33
2017-04-08T03:05:54.402Z,80.8
2017-04-08T03:06:35.019Z,80.8
2017-04-08T03:07:16.470Z,80.33
2017-04-08T03:07:57.265Z,80.71
2017-04-08T03:08:37.841Z,80.71
2017-04-08T03:09:18.832Z,80.52
2017-04-08T03:09:59.527Z,80.52
2017-04-08T03:10:40.124Z,80.61
2017-04-08T03:11:20.877Z,80.33
2017-04-08T03:12:07.141Z,80.52
2017-04-08T03:12:47.903Z,80.52
2017-04-08T03:13:30.621Z,80.71
2017-04-08T03:14:13.327Z,80.61
2017-04-08T03:14:54.060Z,81.18
2017-04-08T03:15:34.808Z,81.09
2017-04-08T03:16:15.554Z,81.18
2017-04-08T03:16:56.365Z,80.8
2017-04-08T03:17:37.099Z,81.09
2017-04-08T03:18:17.823Z,80.99
2017-04-08T03:18:59.502Z,80.8
2017-04-08T03:19:40.257Z,80.61
2017-04-08T03:20:25.631Z,81.09
2017-04-08T03:21:07.395Z,81.18
2017-04-08T03:21:54.703Z,81.18
2017-04-08T03:22:35.469Z,81.66
2017-04-08T03:23:16.229Z,81.66
2017-04-08T03:23:57.930Z,81.37
2017-04-08T03:24:38.685Z,81.18
2017-04-08T03:25:19.411Z,81.09
2017-04-08T03:26:00.157Z,81.09
2017-04-08T03:26:40.733Z,80.99
2017-04-08T03:27:23.412Z,80.99
2017-04-08T03:28:04.146Z,81.09
2017-04-08T03:28:44.708Z,80.99
2017-04-08T03:29:26.441Z,80.99
2017-04-08T03:30:07.142Z,81.47
2017-04-08T03:30:47.709Z,81.37
2017-04-08T03:31:28.358Z,81.09
2017-04-08T03:32:09.129Z,81.28
2017-04-08T03:32:49.882Z,81.47
2017-04-08T03:33:30.642Z,81.37
2017-04-08T03:34:12.402Z,81.09
2017-04-08T03:34:53.164Z,81.18
2017-04-08T03:35:33.905Z,81.66
2017-04-08T03:36:14.478Z,81.28
2017-04-08T03:36:55.237Z,81.66
2017-04-08T03:37:41.910Z,81.56
2017-04-08T03:38:22.503Z,81.47
2017-04-08T03:39:04.261Z,81.66
2017-04-08T03:39:46.945Z,81.76
2017-04-08T03:40:27.525Z,81.76
2017-04-08T03:41:08.153Z,81.56
2017-04-08T03:41:48.842Z,81.56
2017-04-08T03:42:29.585Z,81.66
2017-04-08T03:43:10.218Z,81.47
2017-04-08T03:43:50.969Z,81.76
2017-04-08T03:44:31.667Z,81.37
2017-04-08T03:45:14.411Z,81.76
2017-04-08T03:45:54.978Z,81.95
2017-04-08T03:46:37.061Z,81.76
2017-04-08T03:47:17.752Z,81.95
2017-04-08T03:48:00.504Z,82.14
2017-04-08T03:48:41.079Z,82.04
2017-04-08T03:49:21.835Z,81.85
2017-04-08T03:50:03.564Z,81.95
2017-04-08T03:50:44.312Z,81.85
2017-04-08T03:51:26.080Z,81.85
2017-04-08T03:52:08.802Z,81.95
2017-04-08T03:52:50.563Z,81.95
2017-04-08T03:53:31.325Z,82.23
2017-04-08T03:54:12.072Z,81.85
2017-04-08T03:54:52.828Z,82.04
2017-04-08T03:55:34.510Z,81.95
2017-04-08T03:56:16.260Z,81.85
2017-04-08T03:56:56.992Z,81.95
2017-04-08T03:57:38.787Z,81.95
2017-04-08T03:58:19.519Z,81.95
2017-04-08T03:59:01.196Z,82.14
2017-04-08T03:59:43.902Z,82.23
2017-04-08T04:00:26.599Z,81.85
2017-04-08T04:01:08.305Z,81.85
2017-04-08T04:01:50.981Z,81.95
2017-04-08T04:02:33.690Z,81.95
2017-04-08T04:03:14.440Z,82.04
2017-04-08T04:03:56.234Z,82.14
2017-04-08T04:04:38.925Z,82.04
2017-04-08T04:05:19.673Z,82.04
2017-04-08T04:06:00.463Z,82.04
2017-04-08T04:06:42.112Z,82
2017-04-08T04:07:23.994Z,82.04
2017-04-08T04:08:05.772Z,82.04
2017-04-08T04:08:48.508Z,81.76
2017-04-08T04:09:30.267Z,82.04
2017-04-08T04:10:11.005Z,82.14
2017-04-08T04:10:52.735Z,82.04
2017-04-08T04:11:33.419Z,82.14
2017-04-08T04:12:13.986Z,81.76
2017-04-08T04:12:54.782Z,82.04
2017-04-08T04:13:35.608Z,82.14
2017-04-08T04:14:16.356Z,81.76
2017-04-08T04:14:56.924Z,82.04
2017-04-08T04:15:37.719Z,82.04
2017-04-08T04:16:20.473Z,81.95
2017-04-08T04:17:01.069Z,82.04
2017-04-08T04:17:46.709Z,82.14
2017-04-08T04:18:28.466Z,81.66
2017-04-08T04:19:09.026Z,81.85
2017-04-08T04:19:50.810Z,81.56
2017-04-08T04:20:31.549Z,81.37
2017-04-08T04:21:12.302Z,81.76
2017-04-08T04:21:53.059Z,81.56
2017-04-08T04:22:33.820Z,81.47
2017-04-08T04:23:14.571Z,81.47
2017-04-08T04:23:55.332Z,81.56
2017-04-08T04:24:37.094Z,81.76
2017-04-08T04:25:19.906Z,81.56
2017-04-08T04:26:00.653Z,81.47
2017-04-08T04:26:43.464Z,81.66
2017-04-08T04:27:24.210Z,82.04
2017-04-08T04:28:04.973Z,81.95
2017-04-08T04:28:50.439Z,81.95
2017-04-08T04:29:35.908Z,82.04
2017-04-08T04:30:16.493Z,82.04
2017-04-08T04:30:57.233Z,81.95
2017-04-08T04:31:37.931Z,82.04
2017-04-08T04:32:18.745Z,81.95
2017-04-08T04:32:59.292Z,82.04
2017-04-08T04:33:41.115Z,82.14
2017-04-08T04:34:21.881Z,81.95
2017-04-08T04:35:03.583Z,81.95
2017-04-08T04:35:44.162Z,82.14
2017-04-08T04:36:26.967Z,81.76
2017-04-08T04:37:07.683Z,81.95
2017-04-08T04:37:48.255Z,82.04
2017-04-08T04:38:30.034Z,81.85
2017-04-08T04:39:11.813Z,81.85
2017-04-08T04:39:52.412Z,81.95
2017-04-08T04:40:37.728Z,82.42
2017-04-08T04:41:18.470Z,81.95
2017-04-08T04:41:59.030Z,81.76
2017-04-08T04:42:39.780Z,82.04
2017-04-08T04:43:21.588Z,82.42
2017-04-08T04:44:02.151Z,82.42
2017-04-08T04:44:47.695Z,82.04
2017-04-08T04:45:28.430Z,81.85
2017-04-08T04:46:09.021Z,81.76
2017-04-08T04:46:49.738Z,81.85
2017-04-08T04:47:31.516Z,81.95
2017-04-08T04:48:12.118Z,81.76
2017-04-08T04:48:53.867Z,82.04
2017-04-08T04:49:36.645Z,82.51
2017-04-08T04:50:17.223Z,81.76
2017-04-08T04:50:57.972Z,81.76
2017-04-08T04:51:38.740Z,81.76
2017-04-08T04:52:19.469Z,82.42
2017-04-08T04:53:00.244Z,82.32
2017-04-08T04:53:40.995Z,82.61
2017-04-08T04:54:21.736Z,82.23
2017-04-08T04:55:02.507Z,82.42
2017-04-08T04:55:43.244Z,82.42
2017-04-08T04:56:24.007Z,82.51
2017-04-08T04:57:06.710Z,82.42
2017-04-08T04:57:48.495Z,81.85
2017-04-08T04:58:29.248Z,82.61
2017-04-08T04:59:09.993Z,82.61
2017-04-08T04:59:50.749Z,82.42
2017-04-08T05:00:32.537Z,82.42
2017-04-08T05:01:13.278Z,82.23
2017-04-08T05:01:54.052Z,82.32
2017-04-08T05:02:34.822Z,82.42
2017-04-08T05:03:15.560Z,82.32
2017-04-08T05:03:56.319Z,82.23
2017-04-08T05:04:37.072Z,82.23
2017-04-08T05:05:17.824Z,82.14
2017-04-08T05:05:58.538Z,82.23
2017-04-08T05:06:40.136Z,82.32
2017-04-08T05:07:20.729Z,82.32
2017-04-08T05:08:03.414Z,82.23
2017-04-08T05:08:45.020Z,82.32
2017-04-08T05:09:31.451Z,81.95
2017-04-08T05:10:12.043Z,82.14
2017-04-08T05:10:53.701Z,82.32
2017-04-08T05:11:35.362Z,82.32
2017-04-08T05:12:15.915Z,82.23
2017-04-08T05:12:57.629Z,82.14
2017-04-08T05:13:39.259Z,82.32
2017-04-08T05:14:19.829Z,82.23
2017-04-08T05:15:02.430Z,82.23
2017-04-08T05:15:44.090Z,82.14
2017-04-08T05:16:26.785Z,82.23
2017-04-08T05:17:08.470Z,82.42
2017-04-08T05:17:49.139Z,82.32
2017-04-08T05:18:29.778Z,82.23
2017-04-08T05:19:11.453Z,82.23
2017-04-08T05:19:52.101Z,82.14
2017-04-08T05:20:32.698Z,82.23
2017-04-08T05:21:14.359Z,82.14
2017-04-08T05:21:54.999Z,82.32
2017-04-08T05:22:35.674Z,82.23
2017-04-08T05:23:16.316Z,82.42
2017-04-08T05:23:56.948Z,82.23
2017-04-08T05:24:37.612Z,82.42
2017-04-08T05:25:18.287Z,82.14
2017-04-08T05:26:00.923Z,82.42
2017-04-08T05:26:41.607Z,82.51
2017-04-08T05:27:22.179Z,82.42
2017-04-08T05:28:08.694Z,82.61
2017-04-08T05:28:51.304Z,82.32
2017-04-08T05:29:33.936Z,81.66
2017-04-08T05:30:14.530Z,81.76
2017-04-08T05:30:55.161Z,81.85
2017-04-08T05:31:36.884Z,81.85
2017-04-08T05:32:17.488Z,81.95
2017-04-08T05:32:59.168Z,82.04
2017-04-08T05:33:39.835Z,82.14
2017-04-08T05:34:22.600Z,81.95
2017-04-08T05:35:03.287Z,82.04
2017-04-08T05:35:43.927Z,81.95
2017-04-08T05:36:26.535Z,82.04
2017-04-08T05:37:08.227Z,81.76
2017-04-08T05:37:48.855Z,81.76
2017-04-08T05:38:40.178Z,81.56
2017-04-08T05:39:31.733Z,81.76
2017-04-08T05:40:13.364Z,81.76
2017-04-08T05:40:53.975Z,81.76
2017-04-08T05:41:34.544Z,81.76
2017-04-08T05:42:16.234Z,81.66
2017-04-08T05:43:01.785Z,81.56
2017-04-08T05:43:42.360Z,81.47
2017-04-08T05:44:23.051Z,81.76
2017-04-08T05:45:05.672Z,81.76
2017-04-08T05:45:47.387Z,81.56
2017-04-08T05:46:28.021Z,81.56
2017-04-08T05:47:08.670Z,81.47
2017-04-08T05:47:49.318Z,81.56
2017-04-08T05:48:29.999Z,81.37
2017-04-08T05:49:11.655Z,81.56
2017-04-08T05:49:54.394Z,81.28
2017-04-08T05:50:34.964Z,81.28
2017-04-08T05:51:20.199Z,81.28
2017-04-08T05:52:00.866Z,81.28
2017-04-08T05:52:41.465Z,80.99
2017-04-08T05:53:22.032Z,81.09
2017-04-08T05:54:02.714Z,81.47
2017-04-08T05:54:43.422Z,81.18
2017-04-08T05:55:24.086Z,81.56
2017-04-08T05:56:05.773Z,81.18
2017-04-08T05:56:46.528Z,81.28
2017-04-08T05:57:27.269Z,81.56
2017-04-08T05:58:07.913Z,81.18
2017-04-08T05:58:49.600Z,81.09
2017-04-08T05:59:32.300Z,81.37
2017-04-08T06:00:12.958Z,80.99
2017-04-08T06:00:53.592Z,80.99
2017-04-08T06:01:34.310Z,81.09
2017-04-08T06:02:14.983Z,81.09
2017-04-08T06:02:57.688Z,81.18
2017-04-08T06:03:38.255Z,81.37
2017-04-08T06:04:19.957Z,81.23
2017-04-08T06:05:01.630Z,80.52
2017-04-08T06:05:43.296Z,80.75
2017-04-08T06:06:23.852Z,81.23
2017-04-08T06:07:06.458Z,80.75
2017-04-08T06:07:47.146Z,81.18
2017-04-08T06:08:29.791Z,81.23
2017-04-08T06:09:10.350Z,81.7
2017-04-08T06:09:52.041Z,81.6
2017-04-08T06:10:34.857Z,81.37
2017-04-08T06:11:15.478Z,81.13
2017-04-08T06:11:56.073Z,81.09
2017-04-08T06:12:36.707Z,80.8
2017-04-08T06:13:17.390Z,80.84
2017-04-08T06:13:57.985Z,81.03
2017-04-08T06:14:38.562Z,80.94
2017-04-08T06:15:19.202Z,80.94
2017-04-08T06:16:00.877Z,80.99
2017-04-08T06:16:41.474Z,80.9
2017-04-08T06:17:22.120Z,80.99
2017-04-08T06:18:02.727Z,80.9
2017-04-08T06:18:43.308Z,81.23
2017-04-08T06:19:25.999Z,81.23
2017-04-08T06:20:06.630Z,80.46
2017-04-08T06:20:47.185Z,80.46
2017-04-08T06:21:27.877Z,80.55
2017-04-08T06:22:09.581Z,80.84
2017-04-08T06:22:55.795Z,80.46
2017-04-08T06:23:36.393Z,80.55
2017-04-08T06:24:21.675Z,80.46
2017-04-08T06:25:02.425Z,80.55
2017-04-08T06:25:43.008Z,80.65
2017-04-08T06:26:23.719Z,80.27
2017-04-08T06:27:04.323Z,80.18
2017-04-08T06:27:44.924Z,80.46
2017-04-08T06:28:25.561Z,80.18
2017-04-08T06:29:12.844Z,80.27
2017-04-08T06:29:53.433Z,80.18
2017-04-08T06:30:34.075Z,80.55
2017-04-08T06:31:14.797Z,80.46
2017-04-08T06:31:55.368Z,80.65
2017-04-08T06:32:37.068Z,80.36
2017-04-08T06:33:17.779Z,80.27
2017-04-08T06:33:58.368Z,79.89
2017-04-08T06:34:39.170Z,79.8
2017-04-08T06:35:24.856Z,79.7
2017-04-08T06:36:05.510Z,79.7
2017-04-08T06:36:46.166Z,79.7
2017-04-08T06:37:26.818Z,79.51
2017-04-08T06:38:07.477Z,79.6
2017-04-08T06:38:52.825Z,79.7
2017-04-08T06:39:33.482Z,79.7
2017-04-08T06:40:15.159Z,79.6
2017-04-08T06:40:55.912Z,79.6
2017-04-08T06:41:36.586Z,79.7
2017-04-08T06:42:19.275Z,79.8
2017-04-08T06:43:04.838Z,79.89
2017-04-08T06:43:45.488Z,79.41
2017-04-08T06:44:30.855Z,79.89
2017-04-08T06:45:12.533Z,79.99
2017-04-08T06:45:53.142Z,79.99
2017-04-08T06:46:34.825Z,79.89
2017-04-08T06:47:16.438Z,79.7
2017-04-08T06:47:56.996Z,79.6
2017-04-08T06:48:42.194Z,79.27
2017-04-08T06:49:22.910Z,79.64
2017-04-08T06:50:03.517Z,79.41
2017-04-08T06:50:51.197Z,79.46
2017-04-08T06:51:32.884Z,79.55
2017-04-08T06:52:16.045Z,79.46
2017-04-08T06:52:57.751Z,78.78
2017-04-08T06:53:45.172Z,79.07
2017-04-08T06:54:25.825Z,79.17
2017-04-08T06:55:07.514Z,78.98
2017-04-08T06:55:48.150Z,78.59
2017-04-08T06:56:29.857Z,78.78
2017-04-08T06:57:12.528Z,78.5
2017-04-08T06:57:53.178Z,78.78
2017-04-08T06:58:33.838Z,78.88
2017-04-08T06:59:15.558Z,78.78
2017-04-08T06:59:57.194Z,78.59
2017-04-08T07:00:38.876Z,78.41
2017-04-08T07:01:19.497Z,78.59
2017-04-08T07:02:00.074Z,78.5
2017-04-08T07:02:41.741Z,78.22
2017-04-08T07:03:23.413Z,78.69
2017-04-08T07:04:04.005Z,78.78
2017-04-08T07:04:50.677Z,78.06
2017-04-08T07:05:31.305Z,78.35
2017-04-08T07:06:11.871Z,78.25
2017-04-08T07:06:52.527Z,78.16
2017-04-08T07:07:37.931Z,77.78
2017-04-08T07:08:18.633Z,77.97
2017-04-08T07:08:59.214Z,77.69
2017-04-08T07:09:39.857Z,77.78
2017-04-08T07:10:20.538Z,77.69
2017-04-08T07:11:01.236Z,77.4
2017-04-08T07:11:41.817Z,77.3
2017-04-08T07:12:22.473Z,77.49
2017-04-08T07:13:03.126Z,77.4
2017-04-08T07:13:48.683Z,77.4
2017-04-08T07:14:35.182Z,77.49
2017-04-08T07:15:16.843Z,77.2
2017-04-08T07:15:57.512Z,77.49
2017-04-08T07:16:38.155Z,77.49
2017-04-08T07:17:23.717Z,77.2
2017-04-08T07:18:05.406Z,77.49
2017-04-08T07:18:52.690Z,77.2
2017-04-08T07:19:33.362Z,76.92
2017-04-08T07:20:19.650Z,76.92
2017-04-08T07:21:00.305Z,77.2
2017-04-08T07:21:42.950Z,77.11
2017-04-08T07:22:23.636Z,76.64
2017-04-08T07:23:04.331Z,76.35
2017-04-08T07:23:45.018Z,76.44
2017-04-08T07:24:30.512Z,76.73
2017-04-08T07:25:11.161Z,77.01
2017-04-08T07:25:51.750Z,76.57
2017-04-08T07:26:32.396Z,76.29
2017-04-08T07:27:14.109Z,76.57
2017-04-08T07:27:54.793Z,76.39
2017-04-08T07:28:35.374Z,76.57
2017-04-08T07:29:21.683Z,76.1
2017-04-08T07:30:06.959Z,76.01
2017-04-08T07:30:47.544Z,76.01
2017-04-08T07:31:28.224Z,75.62
2017-04-08T07:32:08.933Z,75.91
2017-04-08T07:32:50.638Z,76.01
2017-04-08T07:33:31.278Z,75.81
2017-04-08T07:34:13.017Z,75.81
2017-04-08T07:34:53.677Z,75.53
2017-04-08T07:35:36.551Z,75.05
2017-04-08T07:36:17.279Z,75.15
2017-04-08T07:36:57.934Z,75.34
2017-04-08T07:37:39.709Z,74.96
2017-04-08T07:38:21.387Z,75.43
2017-04-08T07:39:02.048Z,75.34
2017-04-08T07:39:49.348Z,75.34
2017-04-08T07:40:31.030Z,75.43
2017-04-08T07:41:11.605Z,75.24
2017-04-08T07:41:54.325Z,75.24
2017-04-08T07:42:36.087Z,75.34
2017-04-08T07:43:16.690Z,74.86
2017-04-08T07:43:57.497Z,75.05
2017-04-08T07:44:40.165Z,74.29
2017-04-08T07:45:20.726Z,74.29
2017-04-08T07:46:08.160Z,74.19
2017-04-08T07:46:48.812Z,74.19
2017-04-08T07:47:30.480Z,73.91
2017-04-08T07:48:12.220Z,74.19
2017-04-08T07:48:53.038Z,73.56
2017-04-08T07:49:38.680Z,73.62
2017-04-08T07:50:19.521Z,73.75
2017-04-08T07:51:14.734Z,73.37
2017-04-08T07:51:55.419Z,72.99
2017-04-08T07:52:36.164Z,72.89
2017-04-08T07:53:16.770Z,73.08
2017-04-08T07:53:57.458Z,73.28
2017-04-08T07:54:38.140Z,73.08
2017-04-08T07:55:19.858Z,73.28
2017-04-08T07:56:00.441Z,73.37
2017-04-08T07:56:43.160Z,72.71
2017-04-08T07:57:24.871Z,72.8
2017-04-08T07:58:20.214Z,73.18
2017-04-08T07:59:13.714Z,72.13
2017-04-08T07:59:55.354Z,72.23
2017-04-08T08:00:38.060Z,72.23
2017-04-08T08:01:18.755Z,72.03
2017-04-08T08:33:37.148Z,66.99
2017-04-08T08:34:17.823Z,66.89
2017-04-08T08:34:58.519Z,66.7
2017-04-08T08:35:39.088Z,66.41
2017-04-08T08:36:19.742Z,66.7
2017-04-08T08:37:01.512Z,66.16
2017-04-08T08:37:42.134Z,66.25
2017-04-08T08:38:23.847Z,65.87
2017-04-08T08:39:09.298Z,66.06
2017-04-08T08:39:49.875Z,66.16
2017-04-08T08:40:30.537Z,65.87
2017-04-08T08:41:13.204Z,65.97
2017-04-08T08:42:04.829Z,65.77
2017-04-08T08:42:51.299Z,65.84
2017-04-08T08:43:31.979Z,65.64
2017-04-08T08:44:12.733Z,65.74
2017-04-08T08:44:54.581Z,65.48
2017-04-08T08:45:36.275Z,65.55
2017-04-08T08:46:19.082Z,65.55
2017-04-08T08:47:05.393Z,65.64
2017-04-08T08:47:47.040Z,65.97
2017-04-08T08:48:29.741Z,65.97
2017-04-08T08:49:10.433Z,65.58
2017-04-08T08:49:55.848Z,65.2
2017-04-08T08:50:43.407Z,65.3
2017-04-08T08:51:23.987Z,65.39
2017-04-08T09:00:10.553Z,63.89
2017-04-08T09:00:52.290Z,63.7
2017-04-08T09:01:33.033Z,63.99
2017-04-08T09:02:13.799Z,63.6
2017-04-08T09:02:54.562Z,63.8
2017-04-08T09:03:35.293Z,63.7
2017-04-08T09:04:15.960Z,63.42
2017-04-08T09:05:02.356Z,63.42
2017-04-08T09:05:43.102Z,63.42
2017-04-08T09:06:23.849Z,63.51
2017-04-08T09:07:04.606Z,63.32
2017-04-08T09:07:45.389Z,63.42
2017-04-08T09:08:26.137Z,63.03
2017-04-08T09:09:06.888Z,63.03
2017-04-08T09:09:47.696Z,63.13
2017-04-08T09:10:28.429Z,63.23
2017-04-08T09:11:09.147Z,62.65
2017-04-08T09:11:49.888Z,63.03
2017-04-08T09:12:30.643Z,62.37
2017-04-08T09:13:11.398Z,62.65
2017-04-08T09:13:52.154Z,61.98
2017-04-08T09:14:33.215Z,62.08
2017-04-08T09:15:13.964Z,62.17
2017-04-08T09:15:54.731Z,62.27
2017-04-08T09:16:36.095Z,61.98
2017-04-08T09:17:16.799Z,61.6
2017-04-08T09:17:57.505Z,61.6
2017-04-08T09:18:38.202Z,61.69
2017-04-08T09:19:18.795Z,61.79
2017-04-08T09:20:00.426Z,61.6
2017-04-08T09:20:42.098Z,61.51
2017-04-08T09:21:22.751Z,61.12
2017-04-08T09:22:03.413Z,61.12
2017-04-08T09:22:44.062Z,61.31
2017-04-08T09:23:24.715Z,60.93
2017-04-08T09:24:05.379Z,61.34
2017-04-08T09:24:46.033Z,61.34
2017-04-08T09:25:26.684Z,60.86
2017-04-08T09:26:07.334Z,61.15
2017-04-08T09:26:47.987Z,61.15
2017-04-08T09:27:28.625Z,61.05
2017-04-08T09:28:09.292Z,61.02
2017-04-08T09:28:50.010Z,60.93
2017-04-08T09:29:30.711Z,60.74
2017-04-08T09:30:11.356Z,60.83
2017-04-08T09:30:52.010Z,60.83
2017-04-08T09:31:32.656Z,60.74
2017-04-08T09:32:13.314Z,60.74
2017-04-08T09:32:53.972Z,60.74
2017-04-08T09:33:34.623Z,60.64
2017-04-08T09:34:15.273Z,60.83
2017-04-08T09:34:55.931Z,60.74
2017-04-08T09:35:36.579Z,61.02
2017-04-08T09:36:17.157Z,60.55